sensor_id;sensor_type;location;lat;lon;timestamp;P1;durP1;ratioP1;P2;durP2;ratioP2
21517;SDS011;61765;45.794;24.150;2022-09-01T00:00:22;9.45;;;7.18;;
21517;SDS011;61765;45.794;24.150;2022-09-01T00:08:32;9.05;;;6.38;;
21517;SDS011;61765;45.794;24.150;2022-09-01T00:16:37;8.30;;;6.93;;
21517;SDS011;61765;45.794;24.150;2022-09-01T00:24:45;11.23;;;7.25;;
21517;SDS011;61765;45.794;24.150;2022-09-01T00:32:51;8.85;;;7.75;;
21517;SDS011;61765;45.794;24.150;2022-09-01T00:40:59;9.02;;;7.30;;
21517;SDS011;61765;45.794;24.150;2022-09-01T00:49:05;7.65;;;6.60;;
21517;SDS011;61765;45.794;24.150;2022-09-01T00:57:16;9.60;;;6.82;;
21517;SDS011;61765;45.794;24.150;2022-09-01T01:05:22;7.80;;;7.00;;
21517;SDS011;61765;45.794;24.150;2022-09-01T01:13:32;10.15;;;8.23;;
21517;SDS011;61765;45.794;24.150;2022-09-01T01:21:54;11.30;;;7.53;;
21517;SDS011;61765;45.794;24.150;2022-09-01T01:30:16;11.25;;;7.82;;
21517;SDS011;61765;45.794;24.150;2022-09-01T01:38:24;9.90;;;8.27;;
21517;SDS011;61765;45.794;24.150;2022-09-01T01:46:35;11.93;;;9.25;;
21517;SDS011;61765;45.794;24.150;2022-09-01T01:54:44;10.73;;;9.38;;
21517;SDS011;61765;45.794;24.150;2022-09-01T02:02:53;14.35;;;10.05;;
21517;SDS011;61765;45.794;24.150;2022-09-01T02:10:59;14.23;;;10.40;;
21517;SDS011;61765;45.794;24.150;2022-09-01T02:19:07;12.25;;;9.77;;
21517;SDS011;61765;45.794;24.150;2022-09-01T02:27:16;13.02;;;9.43;;
21517;SDS011;61765;45.794;24.150;2022-09-01T02:35:29;14.07;;;9.77;;
21517;SDS011;61765;45.794;24.150;2022-09-01T02:43:35;15.05;;;10.77;;
21517;SDS011;61765;45.794;24.150;2022-09-01T02:51:43;17.70;;;9.77;;
21517;SDS011;61765;45.794;24.150;2022-09-01T02:59:53;12.63;;;10.30;;
21517;SDS011;61765;45.794;24.150;2022-09-01T03:08:03;15.52;;;9.93;;
21517;SDS011;61765;45.794;24.150;2022-09-01T03:16:12;13.52;;;9.80;;
21517;SDS011;61765;45.794;24.150;2022-09-01T03:24:20;13.93;;;10.23;;
21517;SDS011;61765;45.794;24.150;2022-09-01T03:32:25;12.00;;;10.40;;
21517;SDS011;61765;45.794;24.150;2022-09-01T03:40:35;15.38;;;11.77;;
21517;SDS011;61765;45.794;24.150;2022-09-01T03:48:41;17.48;;;11.82;;
21517;SDS011;61765;45.794;24.150;2022-09-01T03:56:49;17.02;;;12.35;;
21517;SDS011;61765;45.794;24.150;2022-09-01T04:04:57;19.45;;;12.57;;
21517;SDS011;61765;45.794;24.150;2022-09-01T04:13:11;15.75;;;13.45;;
21517;SDS011;61765;45.794;24.150;2022-09-01T04:21:16;21.02;;;15.55;;
21517;SDS011;61765;45.794;24.150;2022-09-01T04:29:25;23.08;;;14.45;;
21517;SDS011;61765;45.794;24.150;2022-09-01T04:37:32;21.13;;;14.35;;
21517;SDS011;61765;45.794;24.150;2022-09-01T04:45:44;22.15;;;15.65;;
21517;SDS011;61765;45.794;24.150;2022-09-01T04:53:52;24.60;;;16.70;;
21517;SDS011;61765;45.794;24.150;2022-09-01T05:02:01;18.50;;;13.63;;
21517;SDS011;61765;45.794;24.150;2022-09-01T05:10:08;23.05;;;14.77;;
21517;SDS011;61765;45.794;24.150;2022-09-01T05:18:34;16.37;;;13.37;;
21517;SDS011;61765;45.794;24.150;2022-09-01T05:26:40;17.85;;;13.18;;
21517;SDS011;61765;45.794;24.150;2022-09-01T05:34:51;13.52;;;10.65;;
21517;SDS011;61765;45.794;24.150;2022-09-01T05:42:57;14.40;;;11.27;;
21517;SDS011;61765;45.794;24.150;2022-09-01T05:51:06;14.55;;;10.35;;
21517;SDS011;61765;45.794;24.150;2022-09-01T05:59:32;14.40;;;11.05;;
21517;SDS011;61765;45.794;24.150;2022-09-01T06:07:51;12.57;;;10.00;;
21517;SDS011;61765;45.794;24.150;2022-09-01T06:15:58;17.95;;;10.02;;
21517;SDS011;61765;45.794;24.150;2022-09-01T06:24:06;15.38;;;10.68;;
21517;SDS011;61765;45.794;24.150;2022-09-01T06:32:13;15.77;;;10.25;;
21517;SDS011;61765;45.794;24.150;2022-09-01T06:40:23;11.57;;;9.43;;
21517;SDS011;61765;45.794;24.150;2022-09-01T06:48:29;14.43;;;9.73;;
21517;SDS011;61765;45.794;24.150;2022-09-01T06:56:42;13.90;;;9.40;;
21517;SDS011;61765;45.794;24.150;2022-09-01T07:04:54;17.17;;;10.90;;
21517;SDS011;61765;45.794;24.150;2022-09-01T07:13:05;10.43;;;8.88;;
21517;SDS011;61765;45.794;24.150;2022-09-01T07:21:10;13.35;;;8.70;;
21517;SDS011;61765;45.794;24.150;2022-09-01T07:29:39;17.52;;;9.48;;
21517;SDS011;61765;45.794;24.150;2022-09-01T07:37:45;9.18;;;7.68;;
21517;SDS011;61765;45.794;24.150;2022-09-01T07:46:16;17.08;;;8.95;;
21517;SDS011;61765;45.794;24.150;2022-09-01T07:54:41;7.05;;;5.22;;
21517;SDS011;61765;45.794;24.150;2022-09-01T08:02:49;9.30;;;6.03;;
21517;SDS011;61765;45.794;24.150;2022-09-01T08:10:58;10.98;;;5.88;;
21517;SDS011;61765;45.794;24.150;2022-09-01T08:19:08;6.47;;;5.50;;
21517;SDS011;61765;45.794;24.150;2022-09-01T08:27:43;6.55;;;5.13;;
21517;SDS011;61765;45.794;24.150;2022-09-01T08:35:51;7.40;;;4.10;;
21517;SDS011;61765;45.794;24.150;2022-09-01T08:44:00;4.68;;;2.75;;
21517;SDS011;61765;45.794;24.150;2022-09-01T08:52:16;5.17;;;1.70;;
21517;SDS011;61765;45.794;24.150;2022-09-01T09:00:30;5.35;;;1.80;;
21517;SDS011;61765;45.794;24.150;2022-09-01T09:08:55;5.60;;;2.10;;
21517;SDS011;61765;45.794;24.150;2022-09-01T09:17:04;2.28;;;1.50;;
21517;SDS011;61765;45.794;24.150;2022-09-01T09:25:15;5.13;;;1.80;;
21517;SDS011;61765;45.794;24.150;2022-09-01T09:33:32;3.20;;;2.05;;
21517;SDS011;61765;45.794;24.150;2022-09-01T09:50:21;4.60;;;2.10;;
21517;SDS011;61765;45.794;24.150;2022-09-01T09:58:36;4.45;;;2.80;;
21517;SDS011;61765;45.794;24.150;2022-09-01T10:06:43;3.05;;;2.75;;
21517;SDS011;61765;45.794;24.150;2022-09-01T10:14:52;4.80;;;3.10;;
21517;SDS011;61765;45.794;24.150;2022-09-01T10:22:59;3.15;;;2.67;;
21517;SDS011;61765;45.794;24.150;2022-09-01T10:31:18;6.05;;;3.33;;
21517;SDS011;61765;45.794;24.150;2022-09-01T10:39:33;3.55;;;2.70;;
21517;SDS011;61765;45.794;24.150;2022-09-01T10:56:55;4.78;;;3.75;;
21517;SDS011;61765;45.794;24.150;2022-09-01T11:05:13;6.28;;;4.03;;
21517;SDS011;61765;45.794;24.150;2022-09-01T11:13:29;4.93;;;4.25;;
21517;SDS011;61765;45.794;24.150;2022-09-01T11:21:43;4.53;;;3.60;;
21517;SDS011;61765;45.794;24.150;2022-09-01T11:29:49;5.18;;;3.95;;
21517;SDS011;61765;45.794;24.150;2022-09-01T11:38:01;7.68;;;4.50;;
21517;SDS011;61765;45.794;24.150;2022-09-01T11:46:14;5.25;;;4.18;;
21517;SDS011;61765;45.794;24.150;2022-09-01T11:54:28;5.80;;;3.70;;
21517;SDS011;61765;45.794;24.150;2022-09-01T12:02:42;5.50;;;3.80;;
21517;SDS011;61765;45.794;24.150;2022-09-01T12:10:59;6.32;;;4.30;;
21517;SDS011;61765;45.794;24.150;2022-09-01T12:19:20;5.40;;;3.95;;
21517;SDS011;61765;45.794;24.150;2022-09-01T12:27:30;7.63;;;3.90;;
21517;SDS011;61765;45.794;24.150;2022-09-01T12:35:37;6.05;;;4.18;;
21517;SDS011;61765;45.794;24.150;2022-09-01T12:43:45;4.28;;;3.58;;
21517;SDS011;61765;45.794;24.150;2022-09-01T12:52:05;6.90;;;3.22;;
21517;SDS011;61765;45.794;24.150;2022-09-01T13:00:24;4.65;;;3.50;;
21517;SDS011;61765;45.794;24.150;2022-09-01T13:08:31;3.67;;;3.30;;
21517;SDS011;61765;45.794;24.150;2022-09-01T13:16:41;4.60;;;3.70;;
21517;SDS011;61765;45.794;24.150;2022-09-01T13:24:46;5.85;;;3.90;;
21517;SDS011;61765;45.794;24.150;2022-09-01T13:32:54;6.10;;;4.68;;
21517;SDS011;61765;45.794;24.150;2022-09-01T13:41:20;10.45;;;7.57;;
21517;SDS011;61765;45.794;24.150;2022-09-01T13:49:29;12.13;;;8.25;;
21517;SDS011;61765;45.794;24.150;2022-09-01T13:57:55;13.48;;;7.70;;
21517;SDS011;61765;45.794;24.150;2022-09-01T14:06:03;10.38;;;7.78;;
21517;SDS011;61765;45.794;24.150;2022-09-01T14:14:10;9.68;;;7.90;;
21517;SDS011;61765;45.794;24.150;2022-09-01T14:22:18;10.10;;;7.95;;
21517;SDS011;61765;45.794;24.150;2022-09-01T14:30:24;10.48;;;8.32;;
21517;SDS011;61765;45.794;24.150;2022-09-01T14:38:35;10.90;;;9.32;;
21517;SDS011;61765;45.794;24.150;2022-09-01T14:46:40;14.15;;;11.35;;
21517;SDS011;61765;45.794;24.150;2022-09-01T14:54:48;14.10;;;11.43;;
21517;SDS011;61765;45.794;24.150;2022-09-01T15:02:54;14.63;;;12.73;;
21517;SDS011;61765;45.794;24.150;2022-09-01T15:11:03;18.95;;;13.43;;
21517;SDS011;61765;45.794;24.150;2022-09-01T15:19:12;9.97;;;7.70;;
21517;SDS011;61765;45.794;24.150;2022-09-01T15:27:20;8.63;;;6.40;;
21517;SDS011;61765;45.794;24.150;2022-09-01T15:35:26;15.10;;;8.45;;
21517;SDS011;61765;45.794;24.150;2022-09-01T15:43:35;15.25;;;9.52;;
21517;SDS011;61765;45.794;24.150;2022-09-01T15:51:41;13.63;;;9.75;;
21517;SDS011;61765;45.794;24.150;2022-09-01T15:59:50;14.23;;;11.25;;
21517;SDS011;61765;45.794;24.150;2022-09-01T16:07:55;14.95;;;10.65;;
21517;SDS011;61765;45.794;24.150;2022-09-01T16:16:07;20.38;;;11.43;;
21517;SDS011;61765;45.794;24.150;2022-09-01T16:24:24;13.45;;;10.10;;
21517;SDS011;61765;45.794;24.150;2022-09-01T16:32:32;13.65;;;10.20;;
21517;SDS011;61765;45.794;24.150;2022-09-01T16:40:38;13.18;;;10.32;;
21517;SDS011;61765;45.794;24.150;2022-09-01T16:48:53;12.70;;;11.13;;
21517;SDS011;61765;45.794;24.150;2022-09-01T16:57:03;15.88;;;11.50;;
21517;SDS011;61765;45.794;24.150;2022-09-01T17:05:20;15.57;;;11.63;;
21517;SDS011;61765;45.794;24.150;2022-09-01T17:13:32;15.63;;;12.63;;
21517;SDS011;61765;45.794;24.150;2022-09-01T17:21:44;12.73;;;11.25;;
21517;SDS011;61765;45.794;24.150;2022-09-01T17:29:54;15.65;;;12.88;;
21517;SDS011;61765;45.794;24.150;2022-09-01T17:38:05;15.73;;;12.57;;
21517;SDS011;61765;45.794;24.150;2022-09-01T17:46:21;16.98;;;13.13;;
21517;SDS011;61765;45.794;24.150;2022-09-01T17:54:40;17.45;;;14.02;;
21517;SDS011;61765;45.794;24.150;2022-09-01T18:03:04;13.52;;;12.05;;
21517;SDS011;61765;45.794;24.150;2022-09-01T18:11:30;15.65;;;13.23;;
21517;SDS011;61765;45.794;24.150;2022-09-01T18:19:42;15.43;;;12.70;;
21517;SDS011;61765;45.794;24.150;2022-09-01T18:27:54;17.95;;;13.93;;
21517;SDS011;61765;45.794;24.150;2022-09-01T18:36:07;18.88;;;13.38;;
21517;SDS011;61765;45.794;24.150;2022-09-01T18:44:31;16.23;;;11.93;;
21517;SDS011;61765;45.794;24.150;2022-09-01T19:01:27;16.52;;;12.75;;
21517;SDS011;61765;45.794;24.150;2022-09-01T19:09:37;19.63;;;13.48;;
21517;SDS011;61765;45.794;24.150;2022-09-01T19:17:52;14.82;;;13.00;;
21517;SDS011;61765;45.794;24.150;2022-09-01T19:26:18;14.52;;;11.82;;
21517;SDS011;61765;45.794;24.150;2022-09-01T19:34:30;16.58;;;12.90;;
21517;SDS011;61765;45.794;24.150;2022-09-01T19:42:41;14.30;;;11.75;;
21517;SDS011;61765;45.794;24.150;2022-09-01T19:50:54;14.10;;;12.10;;
21517;SDS011;61765;45.794;24.150;2022-09-01T19:59:06;14.35;;;10.60;;
21517;SDS011;61765;45.794;24.150;2022-09-01T20:07:24;20.05;;;13.38;;
21517;SDS011;61765;45.794;24.150;2022-09-01T20:15:37;20.27;;;14.00;;
21517;SDS011;61765;45.794;24.150;2022-09-01T20:23:54;16.48;;;13.23;;
21517;SDS011;61765;45.794;24.150;2022-09-01T20:32:04;17.25;;;13.02;;
21517;SDS011;61765;45.794;24.150;2022-09-01T20:40:14;23.40;;;15.27;;
21517;SDS011;61765;45.794;24.150;2022-09-01T20:48:25;19.95;;;15.00;;
21517;SDS011;61765;45.794;24.150;2022-09-01T20:56:38;15.95;;;14.20;;
21517;SDS011;61765;45.794;24.150;2022-09-01T21:04:48;18.55;;;12.40;;
21517;SDS011;61765;45.794;24.150;2022-09-01T21:13:02;19.20;;;13.05;;
21517;SDS011;61765;45.794;24.150;2022-09-01T21:21:19;12.75;;;10.35;;
21517;SDS011;61765;45.794;24.150;2022-09-01T21:29:45;12.63;;;9.82;;
21517;SDS011;61765;45.794;24.150;2022-09-01T21:37:57;14.18;;;8.35;;
21517;SDS011;61765;45.794;24.150;2022-09-01T21:46:05;10.25;;;6.63;;
21517;SDS011;61765;45.794;24.150;2022-09-01T21:54:14;6.38;;;5.28;;
21517;SDS011;61765;45.794;24.150;2022-09-01T22:02:22;5.80;;;5.22;;
21517;SDS011;61765;45.794;24.150;2022-09-01T22:10:29;8.68;;;6.53;;
21517;SDS011;61765;45.794;24.150;2022-09-01T22:18:40;6.72;;;5.45;;
21517;SDS011;61765;45.794;24.150;2022-09-01T22:26:45;8.23;;;5.55;;
21517;SDS011;61765;45.794;24.150;2022-09-01T22:34:54;7.47;;;6.40;;
21517;SDS011;61765;45.794;24.150;2022-09-01T22:42:59;6.60;;;5.90;;
21517;SDS011;61765;45.794;24.150;2022-09-01T22:51:09;7.63;;;6.63;;
21517;SDS011;61765;45.794;24.150;2022-09-01T22:59:15;6.93;;;6.10;;
21517;SDS011;61765;45.794;24.150;2022-09-01T23:07:23;7.38;;;6.20;;
21517;SDS011;61765;45.794;24.150;2022-09-01T23:15:29;12.05;;;7.82;;
21517;SDS011;61765;45.794;24.150;2022-09-01T23:23:39;9.65;;;7.30;;
21517;SDS011;61765;45.794;24.150;2022-09-01T23:31:46;7.90;;;6.40;;
21517;SDS011;61765;45.794;24.150;2022-09-01T23:39:54;9.43;;;7.10;;
21517;SDS011;61765;45.794;24.150;2022-09-01T23:48:00;8.20;;;7.20;;
21517;SDS011;61765;45.794;24.150;2022-09-01T23:56:10;9.68;;;7.03;;
